Golden State — WHDV — position and weather

sailwx.info

Track history (hours):
 
Tides and Currents Weather Stations Pressure Air Temp Water Temp Dewpoint Dewpoint Depression Visibility Wind Speed Wind Dir Waves Ship Positions

Golden State

Owner: Crowley Petroleum Services, Jacksonville, FL. More information available from US FCC via Universal Licensing System and Coast Guard Vessel Documentation Center.

Last reported at 2017-Dec-11 13:50 UTC. Time now 2017-Dec-11 19:15 UTC.
Position N 29°43' W 095°14'.

Length 183 m; draft 8.7 m.

Type: Tanker. MMSI: 367342960.

Date/timePositionNaut miles runAvg speedWind from/ knotsBaromVisibWave heightAir tempDewpointWater temp
2017-Dec-11 13:50N 29°43' W 095°14'0 0.0
2017-Dec-11 12:50N 29°43' W 095°14'0 0.0
2017-Dec-11 12:29N 29°43' W 095°14'0 0.0
2017-Dec-11 11:59N 29°43' W 095°14'0 0.0
2017-Dec-11 11:26N 29°43' W 095°14'0 0.0
2017-Dec-11 10:50N 29°43' W 095°14'0 0.0
2017-Dec-11 10:26N 29°43' W 095°14'0 0.0
2017-Dec-11 09:50N 29°43' W 095°14'0 0.0
2017-Dec-11 09:20N 29°43' W 095°14'0 0.0
2017-Dec-11 08:59N 29°43' W 095°14'0 0.0
2017-Dec-11 08:02N 29°43' W 095°14'0 0.0
2017-Dec-11 07:53N 29°43' W 095°14'0 0.0
2017-Dec-11 07:05N 29°43' W 095°14'0 0.0
2017-Dec-11 06:59N 29°43' W 095°14'0 0.0
2017-Dec-11 06:23N 29°43' W 095°14'0 0.0
2017-Dec-11 05:53N 29°43' W 095°14'0 0.0
2017-Dec-11 05:29N 29°43' W 095°14'0 0.0
2017-Dec-11 04:59N 29°43' W 095°14'0 0.0
2017-Dec-11 04:29N 29°43' W 095°14'0 0.0
2017-Dec-11 03:59N 29°43' W 095°14'0 0.0
2017-Dec-11 03:26N 29°43' W 095°14'0 0.0
2017-Dec-11 02:50N 29°43' W 095°14'0 0.0
2017-Dec-11 02:29N 29°43' W 095°14'0 0.0
2017-Dec-11 01:56N 29°43' W 095°14'0 0.0
2017-Dec-11 01:29N 29°43' W 095°14'0 0.0
2017-Dec-11 00:56N 29°43' W 095°14'0 0.0
2017-Dec-11 00:26N 29°43' W 095°14'0 0.0
2017-Dec-11 00:00N 29°43' W 095°14'0 0.6
2017-Dec-10 23:30N 29°43' W 095°14'0 0.5
2017-Dec-10 23:00N 29°43' W 095°14'2 4.2
2017-Dec-10 22:30N 29°44' W 095°12'1 0.1
2017-Dec-10 15:02N 29°45' W 095°11'0 0.0
2017-Dec-10 14:59N 29°45' W 095°11'0 0.0
2017-Dec-10 14:23N 29°45' W 095°11'0 0.0
2017-Dec-10 13:53N 29°45' W 095°11'0 0.0
2017-Dec-10 13:29N 29°45' W 095°11'0 0.0
2017-Dec-10 12:32N 29°45' W 095°11'0 0.0
2017-Dec-10 12:23N 29°45' W 095°11'0 0.0
2017-Dec-10 06:50N 29°45' W 095°11'0 0.0
2017-Dec-10 06:08N 29°45' W 095°11'0 0.0
2017-Dec-10 05:50N 29°45' W 095°11'0 0.0
2017-Dec-10 05:26N 29°45' W 095°11'0 0.0
2017-Dec-10 04:50N 29°45' W 095°11'0 0.0
2017-Dec-09 15:11N 29°45' W 095°11'0 0.0
2017-Dec-09 14:05N 29°45' W 095°11'0 0.0
2017-Dec-09 13:56N 29°45' W 095°11'0 0.0
2017-Dec-09 13:23N 29°45' W 095°11'0 0.0
2017-Dec-09 12:35N 29°45' W 095°11'0 0.1
2017-Dec-09 12:29N 29°45' W 095°11'0 0.0
2017-Dec-09 11:59N 29°45' W 095°11'0 0.0
2017-Dec-09 11:23N 29°45' W 095°11'0 0.0
2017-Dec-09 10:59N 29°45' W 095°11'0 0.0
2017-Dec-09 10:26N 29°45' W 095°11'0 0.0
2017-Dec-09 09:56N 29°45' W 095°11'0 0.0
2017-Dec-09 05:38N 29°45' W 095°11'0 0.0
2017-Dec-08 09:32N 29°45' W 095°11'0 0.0
2017-Dec-07 11:44N 29°45' W 095°11'0 0.0
2017-Dec-07 09:56N 29°45' W 095°11'0 0.0
2017-Dec-07 09:20N 29°45' W 095°11'0 0.0
2017-Dec-07 08:56N 29°45' W 095°11'0 0.0
2017-Dec-07 08:26N 29°45' W 095°11'0 0.0
2017-Dec-07 07:59N 29°45' W 095°11'0 0.0
2017-Dec-07 07:30N 29°45' W 095°11'1 1.5
2017-Dec-07 07:00N 29°44' W 095°12'2 4.7
2017-Dec-07 06:30N 29°44' W 095°09'3 6.4
2017-Dec-07 06:00N 29°45' W 095°06'3 6.4
2017-Dec-07 05:30N 29°44' W 095°02'4 7.8
2017-Dec-07 05:00N 29°41' W 094°59'612.5
2017-Dec-07 04:30N 29°35' W 094°56'713.4
2017-Dec-07 04:00N 29°30' W 094°52'714.3
2017-Dec-07 03:30N 29°23' W 094°49'  
2017-Dec-04 06:07N 25°27' W 080°02'212.3
2017-Dec-04 05:56N 25°29' W 080°02'612.8
2017-Dec-04 05:30N 25°35' W 080°02'613.0
2017-Dec-04 05:00N 25°41' W 080°02'612.1
2017-Dec-04 04:30N 25°48' W 080°02'612.4
2017-Dec-04 04:00N 25°54' W 080°02'612.1
2017-Dec-04 03:30N 25°60' W 080°02'510.4
2017-Dec-04 03:00N 26°05' W 080°04'3 6.5
2017-Dec-04 02:30N 26°05' W 080°07'0 0.0
2017-Dec-04 01:55N 26°05' W 080°07'0 0.0
2017-Dec-04 01:25N 26°05' W 080°07'0 0.0
2017-Dec-04 00:58N 26°05' W 080°07'0 0.0
2017-Dec-04 00:28N 26°05' W 080°07'0 0.0
2017-Dec-03 23:58N 26°05' W 080°07'0 0.0
2017-Dec-03 23:28N 26°05' W 080°07'0 0.0
2017-Dec-03 22:58N 26°05' W 080°07'0 0.0
2017-Dec-03 22:28N 26°05' W 080°07'0 0.0
2017-Dec-03 21:58N 26°05' W 080°07'0 0.0
2017-Dec-03 21:28N 26°05' W 080°07'0 0.0
2017-Dec-03 20:58N 26°05' W 080°07'0 0.0
2017-Dec-03 20:28N 26°05' W 080°07'0 0.0
2017-Dec-03 19:58N 26°05' W 080°07'0 0.0
2017-Dec-03 19:28N 26°05' W 080°07'0 0.0
2017-Dec-03 18:58N 26°05' W 080°07'0 0.0
2017-Dec-03 18:19N 26°05' W 080°07'0 0.0
2017-Dec-03 17:46N 26°05' W 080°07'0 0.0
2017-Dec-03 17:19N 26°05' W 080°07'0 0.0
2017-Dec-03 16:49N 26°05' W 080°07'0 0.0
2017-Dec-03 16:22N 26°05' W 080°07'0 0.0
2017-Dec-03 15:52N 26°05' W 080°07'0 0.0
2017-Dec-03 15:22N 26°05' W 080°07'0 0.0
2017-Dec-03 14:52N 26°05' W 080°07'0 0.0
2017-Dec-03 14:25N 26°05' W 080°07'0 0.0
2017-Dec-03 13:55N 26°05' W 080°07'0 0.0
2017-Dec-03 13:25N 26°05' W 080°07'0 0.0
2017-Dec-03 12:55N 26°05' W 080°07'0 0.0
2017-Dec-03 12:25N 26°05' W 080°07'0 0.0
2017-Dec-03 11:55N 26°05' W 080°07'0 0.0
2017-Dec-03 11:28N 26°05' W 080°07'0 0.0
2017-Dec-03 10:58N 26°05' W 080°07'0 0.0
2017-Dec-03 10:28N 26°05' W 080°07'0 0.0
2017-Dec-03 09:58N 26°05' W 080°07'0 0.0
2017-Dec-03 09:28N 26°05' W 080°07'0 0.0
2017-Dec-03 08:58N 26°05' W 080°07'0 0.0
2017-Dec-03 08:25N 26°05' W 080°07'0 0.0
2017-Dec-03 07:58N 26°05' W 080°07'0 0.0
2017-Dec-03 07:13N 26°05' W 080°07'0 0.0
2017-Dec-03 06:58N 26°05' W 080°07'0 0.0
2017-Dec-03 06:28N 26°05' W 080°07'0 0.0
2017-Dec-03 05:58N 26°05' W 080°07'0 0.0
2017-Dec-03 05:28N 26°05' W 080°07'0 0.0
2017-Dec-03 04:58N 26°05' W 080°07'0 0.2
2017-Dec-03 04:17N 26°05' W 080°07'0 1.2
2017-Dec-03 04:01N 26°06' W 080°07'3 6.0
2017-Dec-03 03:31N 26°05' W 080°04'1 1.7
2017-Dec-03 03:01N 26°06' W 080°04'1 1.2
2017-Dec-03 02:20N 26°07' W 080°05'0 0.0
2017-Dec-03 01:53N 26°07' W 080°05'0 0.0
2017-Dec-03 01:20N 26°07' W 080°05'0 0.0
2017-Dec-03 00:53N 26°07' W 080°05'0 0.0
2017-Dec-03 00:23N 26°07' W 080°05'0 0.0
2017-Dec-02 23:53N 26°07' W 080°05'0 0.0
2017-Dec-02 23:26N 26°07' W 080°05'0 0.0
2017-Dec-02 22:56N 26°07' W 080°05'0 0.0
2017-Dec-02 22:29N 26°07' W 080°05'0 0.0
2017-Dec-02 21:56N 26°07' W 080°05'0 0.0
2017-Dec-02 21:26N 26°07' W 080°05'0 0.0
2017-Dec-02 20:56N 26°07' W 080°05'0 0.0
2017-Dec-02 20:26N 26°07' W 080°05'0 0.0
2017-Dec-02 19:56N 26°07' W 080°05'0 0.0
2017-Dec-02 19:26N 26°07' W 080°05'0 0.0
2017-Dec-02 18:59N 26°07' W 080°05'0 0.0
2017-Dec-02 18:29N 26°07' W 080°05'0 0.0
2017-Dec-02 17:59N 26°07' W 080°05'0 0.0
2017-Dec-02 17:29N 26°07' W 080°05'0 0.0
2017-Dec-02 16:56N 26°07' W 080°05'0 0.0
2017-Dec-02 16:29N 26°07' W 080°05'0 0.0
2017-Dec-02 15:59N 26°07' W 080°05'0 0.0
2017-Dec-02 15:26N 26°07' W 080°05'0 0.0
2017-Dec-02 14:59N 26°07' W 080°05'0 0.0
2017-Dec-02 14:29N 26°07' W 080°05'0 0.0
2017-Dec-02 13:59N 26°07' W 080°05'0 0.0
2017-Dec-02 13:29N 26°07' W 080°05'0 0.0
2017-Dec-02 12:56N 26°07' W 080°05'0 0.0
2017-Dec-02 12:29N 26°07' W 080°05'0 0.0
2017-Dec-02 11:59N 26°07' W 080°05'0 0.0
2017-Dec-02 11:20N 26°07' W 080°05'0 0.0
2017-Dec-02 10:50N 26°07' W 080°05'0 0.0
2017-Dec-02 10:23N 26°07' W 080°05'0 0.0
2017-Dec-02 09:53N 26°07' W 080°05'0 0.0
2017-Dec-02 09:23N 26°07' W 080°05'0 0.0
2017-Dec-02 08:53N 26°07' W 080°05'0 0.0
2017-Dec-02 08:26N 26°07' W 080°05'0 0.0
2017-Dec-02 07:53N 26°07' W 080°05'0 0.0
2017-Dec-02 07:26N 26°07' W 080°05'0 0.0
2017-Dec-02 06:56N 26°07' W 080°05'0 0.1
2017-Dec-02 06:26N 26°07' W 080°05'0 0.0
2017-Dec-02 05:56N 26°07' W 080°05'0 0.1
2017-Dec-02 05:26N 26°07' W 080°05'0 0.1
2017-Dec-02 04:59N 26°07' W 080°05'0 0.0
2017-Dec-02 04:29N 26°07' W 080°05'0 0.1
2017-Dec-02 03:59N 26°07' W 080°05'0 0.0
2017-Dec-02 03:29N 26°07' W 080°05'0 0.0
2017-Dec-02 02:59N 26°07' W 080°05'0 0.0
2017-Dec-02 02:29N 26°07' W 080°05'0 0.4
2017-Dec-02 02:00N 26°06' W 080°04'2 4.4
2017-Dec-02 01:30N 26°04' W 080°04'4 9.0
2017-Dec-02 01:00N 26°00' W 080°02'713.3
2017-Dec-02 00:30N 25°53' W 080°02'714.6
2017-Dec-02 00:00N 25°46' W 080°02'815.3
2017-Dec-01 23:30N 25°39' W 080°02'815.6
2017-Dec-01 23:00N 25°31' W 080°02'815.7
2017-Dec-01 22:30N 25°23' W 080°02'  
Track history (hours):
 
Tides and Currents Weather Stations Pressure Air Temp Water Temp Dewpoint Dewpoint Depression Visibility Wind Speed Wind Dir Waves Ship Positions

Golden State

Owner: Crowley Petroleum Services, Jacksonville, FL. More information available from US FCC via Universal Licensing System and Coast Guard Vessel Documentation Center.

Last reported at 2017-Dec-11 13:50 UTC. Time now 2017-Dec-11 19:15 UTC.
Position N 29°43' W 095°14'.

Length 183 m; draft 8.7 m.

Type: Tanker. MMSI: 367342960.

Date/timePositionNaut miles runAvg speedWind from/ knotsBaromVisibWave heightAir tempDewpointWater temp
2017-Dec-11 13:50N 29°43' W 095°14'0 0.0
2017-Dec-11 12:50N 29°43' W 095°14'0 0.0
2017-Dec-11 12:29N 29°43' W 095°14'0 0.0
2017-Dec-11 11:59N 29°43' W 095°14'0 0.0
2017-Dec-11 11:26N 29°43' W 095°14'0 0.0
2017-Dec-11 10:50N 29°43' W 095°14'0 0.0
2017-Dec-11 10:26N 29°43' W 095°14'0 0.0
2017-Dec-11 09:50N 29°43' W 095°14'0 0.0
2017-Dec-11 09:20N 29°43' W 095°14'0 0.0
2017-Dec-11 08:59N 29°43' W 095°14'0 0.0
2017-Dec-11 08:02N 29°43' W 095°14'0 0.0
2017-Dec-11 07:53N 29°43' W 095°14'0 0.0
2017-Dec-11 07:05N 29°43' W 095°14'0 0.0
2017-Dec-11 06:59N 29°43' W 095°14'0 0.0
2017-Dec-11 06:23N 29°43' W 095°14'0 0.0
2017-Dec-11 05:53N 29°43' W 095°14'0 0.0
2017-Dec-11 05:29N 29°43' W 095°14'0 0.0
2017-Dec-11 04:59N 29°43' W 095°14'0 0.0
2017-Dec-11 04:29N 29°43' W 095°14'0 0.0
2017-Dec-11 03:59N 29°43' W 095°14'0 0.0
2017-Dec-11 03:26N 29°43' W 095°14'0 0.0
2017-Dec-11 02:50N 29°43' W 095°14'0 0.0
2017-Dec-11 02:29N 29°43' W 095°14'0 0.0
2017-Dec-11 01:56N 29°43' W 095°14'0 0.0
2017-Dec-11 01:29N 29°43' W 095°14'0 0.0
2017-Dec-11 00:56N 29°43' W 095°14'0 0.0
2017-Dec-11 00:26N 29°43' W 095°14'0 0.0
2017-Dec-11 00:00N 29°43' W 095°14'0 0.6
2017-Dec-10 23:30N 29°43' W 095°14'0 0.5
2017-Dec-10 23:00N 29°43' W 095°14'2 4.2
2017-Dec-10 22:30N 29°44' W 095°12'1 0.1
2017-Dec-10 15:02N 29°45' W 095°11'0 0.0
2017-Dec-10 14:59N 29°45' W 095°11'0 0.0
2017-Dec-10 14:23N 29°45' W 095°11'0 0.0
2017-Dec-10 13:53N 29°45' W 095°11'0 0.0
2017-Dec-10 13:29N 29°45' W 095°11'0 0.0
2017-Dec-10 12:32N 29°45' W 095°11'0 0.0
2017-Dec-10 12:23N 29°45' W 095°11'0 0.0
2017-Dec-10 06:50N 29°45' W 095°11'0 0.0
2017-Dec-10 06:08N 29°45' W 095°11'0 0.0
2017-Dec-10 05:50N 29°45' W 095°11'0 0.0
2017-Dec-10 05:26N 29°45' W 095°11'0 0.0
2017-Dec-10 04:50N 29°45' W 095°11'0 0.0
2017-Dec-09 15:11N 29°45' W 095°11'0 0.0
2017-Dec-09 14:05N 29°45' W 095°11'0 0.0
2017-Dec-09 13:56N 29°45' W 095°11'0 0.0
2017-Dec-09 13:23N 29°45' W 095°11'0 0.0
2017-Dec-09 12:35N 29°45' W 095°11'0 0.1
2017-Dec-09 12:29N 29°45' W 095°11'0 0.0
2017-Dec-09 11:59N 29°45' W 095°11'0 0.0
2017-Dec-09 11:23N 29°45' W 095°11'0 0.0
2017-Dec-09 10:59N 29°45' W 095°11'0 0.0
2017-Dec-09 10:26N 29°45' W 095°11'0 0.0
2017-Dec-09 09:56N 29°45' W 095°11'0 0.0
2017-Dec-09 05:38N 29°45' W 095°11'0 0.0
2017-Dec-08 09:32N 29°45' W 095°11'0 0.0
2017-Dec-07 11:44N 29°45' W 095°11'0 0.0
2017-Dec-07 09:56N 29°45' W 095°11'0 0.0
2017-Dec-07 09:20N 29°45' W 095°11'0 0.0
2017-Dec-07 08:56N 29°45' W 095°11'0 0.0
2017-Dec-07 08:26N 29°45' W 095°11'0 0.0
2017-Dec-07 07:59N 29°45' W 095°11'0 0.0
2017-Dec-07 07:30N 29°45' W 095°11'1 1.5
2017-Dec-07 07:00N 29°44' W 095°12'2 4.7
2017-Dec-07 06:30N 29°44' W 095°09'3 6.4
2017-Dec-07 06:00N 29°45' W 095°06'3 6.4
2017-Dec-07 05:30N 29°44' W 095°02'4 7.8
2017-Dec-07 05:00N 29°41' W 094°59'612.5
2017-Dec-07 04:30N 29°35' W 094°56'713.4
2017-Dec-07 04:00N 29°30' W 094°52'714.3
2017-Dec-07 03:30N 29°23' W 094°49'  
2017-Dec-04 06:07N 25°27' W 080°02'212.3
2017-Dec-04 05:56N 25°29' W 080°02'612.8
2017-Dec-04 05:30N 25°35' W 080°02'613.0
2017-Dec-04 05:00N 25°41' W 080°02'612.1
2017-Dec-04 04:30N 25°48' W 080°02'612.4
2017-Dec-04 04:00N 25°54' W 080°02'612.1
2017-Dec-04 03:30N 25°60' W 080°02'510.4
2017-Dec-04 03:00N 26°05' W 080°04'3 6.5
2017-Dec-04 02:30N 26°05' W 080°07'0 0.0
2017-Dec-04 01:55N 26°05' W 080°07'0 0.0
2017-Dec-04 01:25N 26°05' W 080°07'0 0.0
2017-Dec-04 00:58N 26°05' W 080°07'0 0.0
2017-Dec-04 00:28N 26°05' W 080°07'0 0.0
2017-Dec-03 23:58N 26°05' W 080°07'0 0.0
2017-Dec-03 23:28N 26°05' W 080°07'0 0.0
2017-Dec-03 22:58N 26°05' W 080°07'0 0.0
2017-Dec-03 22:28N 26°05' W 080°07'0 0.0
2017-Dec-03 21:58N 26°05' W 080°07'0 0.0
2017-Dec-03 21:28N 26°05' W 080°07'0 0.0
2017-Dec-03 20:58N 26°05' W 080°07'0 0.0
2017-Dec-03 20:28N 26°05' W 080°07'0 0.0
2017-Dec-03 19:58N 26°05' W 080°07'0 0.0
2017-Dec-03 19:28N 26°05' W 080°07'0 0.0
2017-Dec-03 18:58N 26°05' W 080°07'0 0.0
2017-Dec-03 18:19N 26°05' W 080°07'0 0.0
2017-Dec-03 17:46N 26°05' W 080°07'0 0.0
2017-Dec-03 17:19N 26°05' W 080°07'0 0.0
2017-Dec-03 16:49N 26°05' W 080°07'0 0.0
2017-Dec-03 16:22N 26°05' W 080°07'0 0.0
2017-Dec-03 15:52N 26°05' W 080°07'0 0.0
2017-Dec-03 15:22N 26°05' W 080°07'0 0.0
2017-Dec-03 14:52N 26°05' W 080°07'0 0.0
2017-Dec-03 14:25N 26°05' W 080°07'0 0.0
2017-Dec-03 13:55N 26°05' W 080°07'0 0.0
2017-Dec-03 13:25N 26°05' W 080°07'0 0.0
2017-Dec-03 12:55N 26°05' W 080°07'0 0.0
2017-Dec-03 12:25N 26°05' W 080°07'0 0.0
2017-Dec-03 11:55N 26°05' W 080°07'0 0.0
2017-Dec-03 11:28N 26°05' W 080°07'0 0.0
2017-Dec-03 10:58N 26°05' W 080°07'0 0.0
2017-Dec-03 10:28N 26°05' W 080°07'0 0.0
2017-Dec-03 09:58N 26°05' W 080°07'0 0.0
2017-Dec-03 09:28N 26°05' W 080°07'0 0.0
2017-Dec-03 08:58N 26°05' W 080°07'0 0.0
2017-Dec-03 08:25N 26°05' W 080°07'0 0.0
2017-Dec-03 07:58N 26°05' W 080°07'0 0.0
2017-Dec-03 07:13N 26°05' W 080°07'0 0.0
2017-Dec-03 06:58N 26°05' W 080°07'0 0.0
2017-Dec-03 06:28N 26°05' W 080°07'0 0.0
2017-Dec-03 05:58N 26°05' W 080°07'0 0.0
2017-Dec-03 05:28N 26°05' W 080°07'0 0.0
2017-Dec-03 04:58N 26°05' W 080°07'0 0.2
2017-Dec-03 04:17N 26°05' W 080°07'0 1.2
2017-Dec-03 04:01N 26°06' W 080°07'3 6.0
2017-Dec-03 03:31N 26°05' W 080°04'1 1.7
2017-Dec-03 03:01N 26°06' W 080°04'1 1.2
2017-Dec-03 02:20N 26°07' W 080°05'0 0.0
2017-Dec-03 01:53N 26°07' W 080°05'0 0.0
2017-Dec-03 01:20N 26°07' W 080°05'0 0.0
2017-Dec-03 00:53N 26°07' W 080°05'0 0.0
2017-Dec-03 00:23N 26°07' W 080°05'0 0.0
2017-Dec-02 23:53N 26°07' W 080°05'0 0.0
2017-Dec-02 23:26N 26°07' W 080°05'0 0.0
2017-Dec-02 22:56N 26°07' W 080°05'0 0.0
2017-Dec-02 22:29N 26°07' W 080°05'0 0.0
2017-Dec-02 21:56N 26°07' W 080°05'0 0.0
2017-Dec-02 21:26N 26°07' W 080°05'0 0.0
2017-Dec-02 20:56N 26°07' W 080°05'0 0.0
2017-Dec-02 20:26N 26°07' W 080°05'0 0.0
2017-Dec-02 19:56N 26°07' W 080°05'0 0.0
2017-Dec-02 19:26N 26°07' W 080°05'0 0.0
2017-Dec-02 18:59N 26°07' W 080°05'0 0.0
2017-Dec-02 18:29N 26°07' W 080°05'0 0.0
2017-Dec-02 17:59N 26°07' W 080°05'0 0.0
2017-Dec-02 17:29N 26°07' W 080°05'0 0.0
2017-Dec-02 16:56N 26°07' W 080°05'0 0.0
2017-Dec-02 16:29N 26°07' W 080°05'0 0.0
2017-Dec-02 15:59N 26°07' W 080°05'0 0.0
2017-Dec-02 15:26N 26°07' W 080°05'0 0.0
2017-Dec-02 14:59N 26°07' W 080°05'0 0.0
2017-Dec-02 14:29N 26°07' W 080°05'0 0.0
2017-Dec-02 13:59N 26°07' W 080°05'0 0.0
2017-Dec-02 13:29N 26°07' W 080°05'0 0.0
2017-Dec-02 12:56N 26°07' W 080°05'0 0.0
2017-Dec-02 12:29N 26°07' W 080°05'0 0.0
2017-Dec-02 11:59N 26°07' W 080°05'0 0.0
2017-Dec-02 11:20N 26°07' W 080°05'0 0.0
2017-Dec-02 10:50N 26°07' W 080°05'0 0.0
2017-Dec-02 10:23N 26°07' W 080°05'0 0.0
2017-Dec-02 09:53N 26°07' W 080°05'0 0.0
2017-Dec-02 09:23N 26°07' W 080°05'0 0.0
2017-Dec-02 08:53N 26°07' W 080°05'0 0.0
2017-Dec-02 08:26N 26°07' W 080°05'0 0.0
2017-Dec-02 07:53N 26°07' W 080°05'0 0.0
2017-Dec-02 07:26N 26°07' W 080°05'0 0.0
2017-Dec-02 06:56N 26°07' W 080°05'0 0.1
2017-Dec-02 06:26N 26°07' W 080°05'0 0.0
2017-Dec-02 05:56N 26°07' W 080°05'0 0.1
2017-Dec-02 05:26N 26°07' W 080°05'0 0.1
2017-Dec-02 04:59N 26°07' W 080°05'0 0.0
2017-Dec-02 04:29N 26°07' W 080°05'0 0.1
2017-Dec-02 03:59N 26°07' W 080°05'0 0.0
2017-Dec-02 03:29N 26°07' W 080°05'0 0.0
2017-Dec-02 02:59N 26°07' W 080°05'0 0.0
2017-Dec-02 02:29N 26°07' W 080°05'0 0.4
2017-Dec-02 02:00N 26°06' W 080°04'2 4.4
2017-Dec-02 01:30N 26°04' W 080°04'4 9.0
2017-Dec-02 01:00N 26°00' W 080°02'713.3
2017-Dec-02 00:30N 25°53' W 080°02'714.6
2017-Dec-02 00:00N 25°46' W 080°02'815.3
2017-Dec-01 23:30N 25°39' W 080°02'815.6
2017-Dec-01 23:00N 25°31' W 080°02'815.7
2017-Dec-01 22:30N 25°23' W 080°02'  

Dump ship's entire track history